x

Portland 12 Nm Southeast Of Portland,me (44007) Wave Buoy

5:50 - Wed 18th Jan 2017 All times are EST. -5 hours from GMT.

  • Sig Wave height 3.9ft
  • Swell Direction
  • Peak Period 6s
  • Average Period 4s
  • Wind
    22mph, 27mph gusts
  • Sea Temp 42°f
  • Luft Temp 31°f
  • Sea Pressure 1018.1mb
  • Portland 12 Nm Southeast Of Portland,me
  • Portland 12 Nm Southeast Of Portland,me

More Historic Weather Station data

Upgrade to MSW Pro to gain access to the past 30 days of data for over 8000 Wavebouys and Weather Stations around the globe.

Join Pro

Comparision Forecast

View Surf forecast
   
Mi 01/18 5:50 4ft 6s 4s 22 27 mph 1018.1mb 42f 31f
4:50 4ft 5s 4s 16 20 mph 1018.3mb 42f 35f
3:50 4.5ft 5s 4s 18 22 mph 1018.8mb 42f 34f
2:50 3.5ft 5s 4s 22 27 mph 1019.3mb 42f 34f
1:50 3.5ft 5s 4s 20 22 mph 1020.2mb 42f 34f
12:50 3.5ft 5s 4s 20 25 mph 1020.9mb 42f 34f
Di 01/17 11:50 3ft 4s 4s 20 25 mph 1021.6mb 42f 35f
10:50 3ft 4s 4s 20 25 mph 1021.7mb 41f 38f
9:50 2.5ft 4s 4s 18 22 mph 1022.4mb 41f 38f
7:50 2ft 4s 4s 13 18 mph 1023.5mb 41f 38f
6:50 1.6ft 4s 4s 13 16 mph 1023.6mb 41f 38f
5:50 1.3ft 4s 4s 13 16 mph 1023.7mb 41f 38f
4:50 1.3ft 4s 4s 11 13 mph 1023.6mb 41f 38f
3:50 1.3ft 3s 4s 7 9 mph 1023.6mb 40f 37f
2:50 1.3ft 3s 4s 9 11 mph 1023.3mb 41f 37f
1:50 1.3ft 3s 3s 9 13 mph 1023.3mb 40f 37f
12:50 1.3ft 3s 3s 9 11 mph 1023.7mb 40f 37f
11:50 1ft 5s 4s 11 13 mph 1024.4mb 40f 37f
10:50 1ft 5s 4s 11
mph
1024.6mb 40f 36f
9:50 1.3ft 5s 4s 9 11 mph 1025.1mb 40f 36f
7:50 2ft 5s 5s 7 9 mph 1024.4mb 40f 35f
6:50 2ft 5s 5s 4
mph
1023.4mb 40f 35f
5:50 2ft 5s 5s 2 4 mph 1022.3mb 40f 35f
4:50 2ft 6s 5s 4 7 mph 1021.9mb 40f 35f
3:50 2.5ft 6s 5s 7 9 mph 1021.6mb 40f 35f
2:50 2.5ft 5s 5s 7
mph
1021.8mb 40f 36f
1:50 2.5ft 6s 5s 9 11 mph 1021mb 41f 37f
12:50 2.5ft 6s 5s 7
mph
1020.5mb 41f 37f
Mo 01/16 11:50 3ft 6s 4s 9 13 mph 1020.8mb 41f 37f
10:50 3.5ft 6s 4s 16 18 mph 1020.9mb 41f 38f
9:50 3.5ft 6s 4s 20 22 mph 1020.8mb 41f 37f
8:50 4ft 5s 4s 20 25 mph 1021.5mb 41f 38f
7:50 4ft 5s 4s 25 29 mph 1021.5mb 41f 38f
6:50 3.5ft 5s 4s 25 27 mph 1021.9mb 41f 39f
5:50 3.5ft 5s 4s 25 27 mph 1021.9mb 42f 39f
4:50 3ft 5s 4s 20 25 mph 1022.3mb 42f 39f
3:50 3.5ft 5s 4s 18 22 mph 1022.5mb 42f 39f
2:50 3.5ft 5s 4s 18 22 mph 1022.8mb 42f 38f
1:50 3ft 4s 4s 20 25 mph 1023.3mb 42f 36f
12:50 3ft 4s 4s 22 27 mph 1024.2mb 42f 34f
11:50 2ft 3s 3s 22 27 mph 1025.5mb 42f 33f
10:50 1.6ft 3s 3s 18 22 mph 1028mb 41f 31f
9:50 1ft 11s 4s 16 18 mph 1029mb 41f 29f
8:50 1ft 9s 4s 7 11 mph 1029.8mb 41f 26f
7:50 1.3ft 10s 4s 13 16 mph 1029.8mb 41f 26f
6:50 1ft 9s 4s 16 18 mph 1029.6mb 41f 28f
5:50 1ft 10s 4s 4 9 mph 1030mb 41f 29f
4:50 1ft 10s 4s 7 9 mph 1030.1mb 41f 27f
3:50 1.3ft 10s 4s 4 9 mph 1030.3mb 41f 26f
2:50 1.3ft 11s 4s 4 9 mph 1030.5mb 41f 26f
1:50 1.3ft 4s 3s 7 11 mph 1030.4mb 41f 25f
12:50 1.3ft 3s 3s 9 11 mph 1030.5mb 41f 25f
So 01/15 11:50 1.3ft 3s 3s 9 13 mph 1030mb 41f 25f
10:50 1.3ft 11s 3s 7 9 mph 1030mb 41f 25f
9:50 1.3ft 11s 3s 13 16 mph 1029.7mb 41f 26f
8:50 1.6ft 3s 3s 13 16 mph 1029.3mb 41f 27f
7:50 1.6ft 10s 3s 16 20 mph 1029.1mb 41f 27f
6:50 1.6ft 3s 3s 18 20 mph 1028.7mb 41f 28f
5:50 1.6ft 3s 3s 16 20 mph 1027.9mb 41f 29f
4:50 1.3ft 3s 3s 16 18 mph 1026.8mb 41f 31f
3:50 1ft 10s 4s 13 20 mph 1025.6mb 41f 32f
2:50 1ft 11s 4s 9 16 mph 1024.7mb 41f 33f
1:50 0.7ft  -  4s 4 9 mph 1024.5mb 41f 32f
12:50 1ft 11s 4s 7 9 mph 1024.3mb 41f 31f
11:50 1ft 12s 4s 7 9 mph 1024.5mb 40f 30f
10:50 1ft 11s 4s 7 9 mph 1024.9mb 40f 29f
9:50 1.6ft 4s 4s 4 7 mph 1025.2mb 40f 28f
8:50 1.6ft 5s 4s 9 11 mph 1024.9mb 39f 28f
7:50 2ft 5s 5s 7 11 mph 1024mb 40f 27f
6:50 2.5ft 5s 5s 11 16 mph 1023.2mb 40f 26f
5:50 2.5ft 5s 5s 11 16 mph 1022.8mb 40f 26f
4:50 2.5ft 5s 5s 11 16 mph 1022.5mb 40f 26f
3:50 3ft 6s 5s 11 13 mph 1022.3mb 41f 27f
2:50 3ft 6s 4s 16 20 mph 1022.2mb 41f 28f
1:50 3ft 5s 4s 20 25 mph 1022.1mb 42f 29f
12:50 3.5ft 5s 4s 22 27 mph 1022.4mb 43f 30f
Sa 01/14 11:50 3.5ft 5s 4s 22 27 mph 1023.2mb 43f 31f
10:50 3ft 4s 4s 22 25 mph 1024.4mb 42f 31f
9:50 2.5ft 4s 4s 20 22 mph 1025.4mb 41f 31f
8:50 2ft 13s 4s 13 18 mph 1026.5mb 42f 31f
7:50 2ft 12s 4s 13 18 mph 1027.5mb 42f 30f
6:50 1.6ft 10s 4s 16 20 mph 1028.3mb 42f 29f
5:50 1.6ft 10s 6s 13 16 mph 1029.9mb 42f 27f
4:50 1.3ft 10s 7s 7 11 mph 1031.1mb 42f 25f
3:50 1.3ft 11s 7s 2 4 mph 1031.9mb 42f 26f
2:50 1.3ft 11s 6s 4 11 mph 1033.1mb 42f 23f
1:50 1ft 12s 6s 7 11 mph 1033.5mb 42f 22f
12:50 1.3ft 11s 6s 9 11 mph 1034.1mb 42f 22f